sensor_id;sensor_type;location;lat;lon;timestamp;pressure;altitude;pressure_sealevel;temperature;humidity
61676;BME280;47574;52.090;5.244;2023-04-25T00:00:48;101076.0;;;12.98;52.92
61676;BME280;47574;52.090;5.244;2023-04-25T00:02:24;101080.0;;;13.04;53.47
61676;BME280;47574;52.090;5.244;2023-04-25T00:04:00;101078.0;;;12.86;53.26
61676;BME280;47574;52.090;5.244;2023-04-25T00:07:13;101084.0;;;12.77;53.1
61676;BME280;47574;52.090;5.244;2023-04-25T00:08:49;101088.0;;;12.67;52.9
61676;BME280;47574;52.090;5.244;2023-04-25T00:10:25;101088.0;;;12.73;53.17
61676;BME280;47574;52.090;5.244;2023-04-25T00:13:38;101095.0;;;12.42;54.04
61676;BME280;47574;52.090;5.244;2023-04-25T00:15:14;101087.0;;;12.18;55.23
61676;BME280;47574;52.090;5.244;2023-04-25T00:16:50;101093.0;;;12.25;54.65
61676;BME280;47574;52.090;5.244;2023-04-25T00:20:03;101092.0;;;12.16;54.48
61676;BME280;47574;52.090;5.244;2023-04-25T00:21:38;101090.0;;;12.29;54.21
61676;BME280;47574;52.090;5.244;2023-04-25T00:23:15;101095.0;;;12.15;54.65
61676;BME280;47574;52.090;5.244;2023-04-25T00:24:51;101093.0;;;12.45;54.24
61676;BME280;47574;52.090;5.244;2023-04-25T00:28:05;101086.0;;;12.26;54.77
61676;BME280;47574;52.090;5.244;2023-04-25T00:29:41;101090.0;;;12.48;54.72
61676;BME280;47574;52.090;5.244;2023-04-25T00:31:17;101089.0;;;12.19;54.53
61676;BME280;47574;52.090;5.244;2023-04-25T00:34:29;101090.0;;;12.32;53.54
61676;BME280;47574;52.090;5.244;2023-04-25T00:36:07;101092.0;;;12.0;53.97
61676;BME280;47574;52.090;5.244;2023-04-25T00:37:42;101092.0;;;12.33;53.28
61676;BME280;47574;52.090;5.244;2023-04-25T00:40:56;101090.0;;;12.27;53.4
61676;BME280;47574;52.090;5.244;2023-04-25T00:42:32;101097.0;;;12.63;53.13
61676;BME280;47574;52.090;5.244;2023-04-25T00:44:09;101096.0;;;12.62;52.92
61676;BME280;47574;52.090;5.244;2023-04-25T00:45:47;101098.0;;;12.45;52.95
61676;BME280;47574;52.090;5.244;2023-04-25T00:49:00;101100.0;;;12.76;53.31
61676;BME280;47574;52.090;5.244;2023-04-25T00:50:36;101091.0;;;12.34;53.2
61676;BME280;47574;52.090;5.244;2023-04-25T00:52:14;101092.0;;;12.22;53.27
61676;BME280;47574;52.090;5.244;2023-04-25T00:55:27;101097.0;;;12.04;53.61
61676;BME280;47574;52.090;5.244;2023-04-25T00:57:03;101091.0;;;12.3;53.23
61676;BME280;47574;52.090;5.244;2023-04-25T00:58:40;101092.0;;;12.13;53.68
61676;BME280;47574;52.090;5.244;2023-04-25T01:01:53;101091.0;;;12.2;53.55
61676;BME280;47574;52.090;5.244;2023-04-25T01:03:31;101089.0;;;12.5;53.31
61676;BME280;47574;52.090;5.244;2023-04-25T01:05:09;101088.0;;;12.29;53.22
61676;BME280;47574;52.090;5.244;2023-04-25T01:06:45;101091.0;;;12.31;54.83
61676;BME280;47574;52.090;5.244;2023-04-25T01:09:59;101094.0;;;12.52;53.77
61676;BME280;47574;52.090;5.244;2023-04-25T01:11:35;101094.0;;;12.63;53.12
61676;BME280;47574;52.090;5.244;2023-04-25T01:13:11;101096.0;;;12.56;53.6
61676;BME280;47574;52.090;5.244;2023-04-25T01:16:24;101100.0;;;12.27;53.12
61676;BME280;47574;52.090;5.244;2023-04-25T01:18:00;101097.0;;;12.39;53.39
61676;BME280;47574;52.090;5.244;2023-04-25T01:19:36;101100.0;;;12.37;53.38
61676;BME280;47574;52.090;5.244;2023-04-25T01:22:50;101099.0;;;12.19;53.33
61676;BME280;47574;52.090;5.244;2023-04-25T01:24:26;101103.0;;;12.29;53.53
61676;BME280;47574;52.090;5.244;2023-04-25T01:26:04;101101.0;;;12.16;53.56
61676;BME280;47574;52.090;5.244;2023-04-25T01:27:42;101098.0;;;12.36;53.2
61676;BME280;47574;52.090;5.244;2023-04-25T01:30:56;101105.0;;;12.39;53.78
61676;BME280;47574;52.090;5.244;2023-04-25T01:32:33;101110.0;;;12.12;53.58
61676;BME280;47574;52.090;5.244;2023-04-25T01:34:09;101114.0;;;12.3;53.7
61676;BME280;47574;52.090;5.244;2023-04-25T01:37:22;101117.0;;;11.91;54.17
61676;BME280;47574;52.090;5.244;2023-04-25T01:38:58;101119.0;;;12.21;54.34
61676;BME280;47574;52.090;5.244;2023-04-25T01:40:38;101119.0;;;12.16;53.79
61676;BME280;47574;52.090;5.244;2023-04-25T01:42:16;101117.0;;;12.21;53.29
61676;BME280;47574;52.090;5.244;2023-04-25T01:45:30;101114.0;;;12.2;53.17
61676;BME280;47574;52.090;5.244;2023-04-25T01:47:06;101120.0;;;12.16;53.56
61676;BME280;47574;52.090;5.244;2023-04-25T01:48:42;101123.0;;;11.97;53.57
61676;BME280;47574;52.090;5.244;2023-04-25T01:51:55;101122.0;;;12.18;53.7
61676;BME280;47574;52.090;5.244;2023-04-25T01:53:31;101125.0;;;12.2;53.61
61676;BME280;47574;52.090;5.244;2023-04-25T01:55:07;101122.0;;;12.09;53.73
61676;BME280;47574;52.090;5.244;2023-04-25T01:58:26;101128.0;;;12.21;53.99
61676;BME280;47574;52.090;5.244;2023-04-25T02:00:04;101131.0;;;12.31;54.13
61676;BME280;47574;52.090;5.244;2023-04-25T02:01:42;101136.0;;;12.23;54.09
61676;BME280;47574;52.090;5.244;2023-04-25T02:03:18;101142.0;;;12.4;53.88
61676;BME280;47574;52.090;5.244;2023-04-25T02:06:31;101144.0;;;12.17;54.04
61676;BME280;47574;52.090;5.244;2023-04-25T02:08:08;101143.0;;;12.31;54.22
61676;BME280;47574;52.090;5.244;2023-04-25T02:09:45;101145.0;;;12.33;54.2
61676;BME280;47574;52.090;5.244;2023-04-25T02:12:57;101146.0;;;12.4;54.29
61676;BME280;47574;52.090;5.244;2023-04-25T02:14:33;101145.0;;;12.41;54.35
61676;BME280;47574;52.090;5.244;2023-04-25T02:16:09;101146.0;;;12.34;54.23
61676;BME280;47574;52.090;5.244;2023-04-25T02:17:45;101140.0;;;12.41;54.18
61676;BME280;47574;52.090;5.244;2023-04-25T02:20:59;101143.0;;;12.39;53.78
61676;BME280;47574;52.090;5.244;2023-04-25T02:22:35;101142.0;;;12.42;53.63
61676;BME280;47574;52.090;5.244;2023-04-25T02:24:11;101142.0;;;12.6;53.64
61676;BME280;47574;52.090;5.244;2023-04-25T02:27:24;101145.0;;;12.71;53.02
61676;BME280;47574;52.090;5.244;2023-04-25T02:29:00;101144.0;;;12.63;53.67
61676;BME280;47574;52.090;5.244;2023-04-25T02:30:37;101147.0;;;12.48;53.75
61676;BME280;47574;52.090;5.244;2023-04-25T02:33:49;101140.0;;;12.41;53.44
61676;BME280;47574;52.090;5.244;2023-04-25T02:35:26;101146.0;;;12.28;53.89
61676;BME280;47574;52.090;5.244;2023-04-25T02:37:02;101144.0;;;12.26;54.04
61676;BME280;47574;52.090;5.244;2023-04-25T02:38:38;101144.0;;;12.36;53.83
61676;BME280;47574;52.090;5.244;2023-04-25T02:41:52;101141.0;;;12.34;53.92
61676;BME280;47574;52.090;5.244;2023-04-25T02:43:28;101144.0;;;12.22;53.4
61676;BME280;47574;52.090;5.244;2023-04-25T02:45:04;101144.0;;;12.37;53.44
61676;BME280;47574;52.090;5.244;2023-04-25T02:48:17;101143.0;;;12.5;52.91
61676;BME280;47574;52.090;5.244;2023-04-25T02:49:53;101145.0;;;12.27;53.24
61676;BME280;47574;52.090;5.244;2023-04-25T02:51:29;101146.0;;;12.3;53.33
61676;BME280;47574;52.090;5.244;2023-04-25T02:54:41;101143.0;;;12.54;53.24
61676;BME280;47574;52.090;5.244;2023-04-25T02:56:17;101144.0;;;12.51;53.31
61676;BME280;47574;52.090;5.244;2023-04-25T02:57:54;101144.0;;;12.5;52.78
61676;BME280;47574;52.090;5.244;2023-04-25T03:01:06;101146.0;;;12.44;53.26
61676;BME280;47574;52.090;5.244;2023-04-25T03:02:42;101143.0;;;12.48;52.86
61676;BME280;47574;52.090;5.244;2023-04-25T03:04:18;101147.0;;;12.46;52.74
61676;BME280;47574;52.090;5.244;2023-04-25T03:05:54;101152.0;;;12.42;53.26
61676;BME280;47574;52.090;5.244;2023-04-25T03:09:06;101159.0;;;12.43;53.29
61676;BME280;47574;52.090;5.244;2023-04-25T03:10:43;101162.0;;;12.4;53.34
61676;BME280;47574;52.090;5.244;2023-04-25T03:12:20;101163.0;;;12.41;53.22
61676;BME280;47574;52.090;5.244;2023-04-25T03:15:32;101159.0;;;12.51;52.81
61676;BME280;47574;52.090;5.244;2023-04-25T03:17:08;101152.0;;;12.53;52.97
61676;BME280;47574;52.090;5.244;2023-04-25T03:18:44;101157.0;;;12.42;52.85
61676;BME280;47574;52.090;5.244;2023-04-25T03:21:56;101167.0;;;12.25;52.5
61676;BME280;47574;52.090;5.244;2023-04-25T03:23:32;101165.0;;;12.38;52.28
61676;BME280;47574;52.090;5.244;2023-04-25T03:25:09;101168.0;;;12.37;52.91
61676;BME280;47574;52.090;5.244;2023-04-25T03:26:45;101171.0;;;12.37;52.82
61676;BME280;47574;52.090;5.244;2023-04-25T03:29:58;101176.0;;;12.49;52.56
61676;BME280;47574;52.090;5.244;2023-04-25T03:31:34;101174.0;;;12.48;52.72
61676;BME280;47574;52.090;5.244;2023-04-25T03:33:10;101183.0;;;12.27;52.39
61676;BME280;47574;52.090;5.244;2023-04-25T03:36:23;101183.0;;;11.98;52.04
61676;BME280;47574;52.090;5.244;2023-04-25T03:37:59;101181.0;;;11.93;51.94
61676;BME280;47574;52.090;5.244;2023-04-25T03:39:36;101174.0;;;11.93;52.07
61676;BME280;47574;52.090;5.244;2023-04-25T03:42:48;101174.0;;;11.96;51.25
61676;BME280;47574;52.090;5.244;2023-04-25T03:44:24;101168.0;;;12.23;51.51
61676;BME280;47574;52.090;5.244;2023-04-25T03:46:00;101168.0;;;12.05;50.59
61676;BME280;47574;52.090;5.244;2023-04-25T03:49:13;101177.0;;;12.22;51.22
61676;BME280;47574;52.090;5.244;2023-04-25T03:50:49;101175.0;;;11.93;51.55
61676;BME280;47574;52.090;5.244;2023-04-25T03:52:25;101174.0;;;12.29;51.16
61676;BME280;47574;52.090;5.244;2023-04-25T03:54:01;101176.0;;;12.16;50.28
61676;BME280;47574;52.090;5.244;2023-04-25T03:57:13;101177.0;;;12.01;51.18
61676;BME280;47574;52.090;5.244;2023-04-25T03:58:49;101175.0;;;12.28;50.86
61676;BME280;47574;52.090;5.244;2023-04-25T04:00:25;101177.0;;;12.26;49.98
61676;BME280;47574;52.090;5.244;2023-04-25T04:03:38;101185.0;;;11.98;49.51
61676;BME280;47574;52.090;5.244;2023-04-25T04:05:14;101184.0;;;12.07;50.01
61676;BME280;47574;52.090;5.244;2023-04-25T04:06:50;101186.0;;;12.37;49.37
61676;BME280;47574;52.090;5.244;2023-04-25T04:10:02;101193.0;;;12.51;49.24
61676;BME280;47574;52.090;5.244;2023-04-25T04:11:39;101196.0;;;12.25;49.32
61676;BME280;47574;52.090;5.244;2023-04-25T04:13:14;101196.0;;;12.27;49.07
61676;BME280;47574;52.090;5.244;2023-04-25T04:16:26;101195.0;;;12.44;49.54
61676;BME280;47574;52.090;5.244;2023-04-25T04:18:03;101205.0;;;12.2;49.04
61676;BME280;47574;52.090;5.244;2023-04-25T04:19:39;101201.0;;;12.02;48.87
61676;BME280;47574;52.090;5.244;2023-04-25T04:21:15;101205.0;;;12.03;48.97
61676;BME280;47574;52.090;5.244;2023-04-25T04:24:27;101210.0;;;12.0;49.4
61676;BME280;47574;52.090;5.244;2023-04-25T04:26:03;101216.0;;;11.92;50.18
61676;BME280;47574;52.090;5.244;2023-04-25T04:27:39;101213.0;;;11.85;49.53
61676;BME280;47574;52.090;5.244;2023-04-25T04:30:53;101214.0;;;11.76;49.64
61676;BME280;47574;52.090;5.244;2023-04-25T04:32:29;101218.0;;;11.71;49.43
61676;BME280;47574;52.090;5.244;2023-04-25T04:34:05;101217.0;;;11.98;49.43
61676;BME280;47574;52.090;5.244;2023-04-25T04:37:17;101219.0;;;11.97;49.78
61676;BME280;47574;52.090;5.244;2023-04-25T04:38:53;101223.0;;;11.85;49.89
61676;BME280;47574;52.090;5.244;2023-04-25T04:40:30;101223.0;;;12.06;49.62
61676;BME280;47574;52.090;5.244;2023-04-25T04:42:07;101220.0;;;11.95;49.97
61676;BME280;47574;52.090;5.244;2023-04-25T04:45:19;101226.0;;;11.7;49.83
61676;BME280;47574;52.090;5.244;2023-04-25T04:46:55;101228.0;;;11.79;50.05
61676;BME280;47574;52.090;5.244;2023-04-25T04:48:31;101232.0;;;11.83;50.03
61676;BME280;47574;52.090;5.244;2023-04-25T04:51:46;101232.0;;;11.89;50.04
61676;BME280;47574;52.090;5.244;2023-04-25T04:53:22;101234.0;;;11.84;50.18
61676;BME280;47574;52.090;5.244;2023-04-25T04:54:58;101233.0;;;12.18;50.27
61676;BME280;47574;52.090;5.244;2023-04-25T04:58:11;101240.0;;;12.25;50.01
61676;BME280;47574;52.090;5.244;2023-04-25T04:59:47;101241.0;;;12.25;50.4
61676;BME280;47574;52.090;5.244;2023-04-25T05:01:24;101244.0;;;12.0;50.23
61676;BME280;47574;52.090;5.244;2023-04-25T05:03:00;101244.0;;;12.05;50.57
61676;BME280;47574;52.090;5.244;2023-04-25T05:06:12;101245.0;;;11.95;50.39
61676;BME280;47574;52.090;5.244;2023-04-25T05:07:49;101247.0;;;12.29;50.75
61676;BME280;47574;52.090;5.244;2023-04-25T05:09:25;101256.0;;;12.28;49.69
61676;BME280;47574;52.090;5.244;2023-04-25T05:12:38;101259.0;;;11.74;50.26
61676;BME280;47574;52.090;5.244;2023-04-25T05:14:14;101261.0;;;11.79;50.75
61676;BME280;47574;52.090;5.244;2023-04-25T05:15:50;101260.0;;;12.17;49.7
61676;BME280;47574;52.090;5.244;2023-04-25T05:19:03;101255.0;;;11.98;49.7
61676;BME280;47574;52.090;5.244;2023-04-25T05:20:39;101258.0;;;11.94;50.02
61676;BME280;47574;52.090;5.244;2023-04-25T05:22:15;101262.0;;;11.94;49.86
61676;BME280;47574;52.090;5.244;2023-04-25T05:25:27;101258.0;;;11.91;49.91
61676;BME280;47574;52.090;5.244;2023-04-25T05:27:03;101265.0;;;12.26;49.98
61676;BME280;47574;52.090;5.244;2023-04-25T05:28:40;101268.0;;;12.26;49.78
61676;BME280;47574;52.090;5.244;2023-04-25T05:30:15;101272.0;;;11.99;49.64
61676;BME280;47574;52.090;5.244;2023-04-25T05:33:28;101276.0;;;12.08;49.52
61676;BME280;47574;52.090;5.244;2023-04-25T05:35:04;101276.0;;;12.27;49.39
61676;BME280;47574;52.090;5.244;2023-04-25T05:36:41;101280.0;;;12.18;49.89
61676;BME280;47574;52.090;5.244;2023-04-25T05:39:53;101280.0;;;12.38;48.59
61676;BME280;47574;52.090;5.244;2023-04-25T05:41:29;101277.0;;;12.36;48.58
61676;BME280;47574;52.090;5.244;2023-04-25T05:43:06;101275.0;;;12.63;48.5
61676;BME280;47574;52.090;5.244;2023-04-25T05:46:18;101276.0;;;12.65;48.37
61676;BME280;47574;52.090;5.244;2023-04-25T05:47:54;101287.0;;;12.51;48.11
61676;BME280;47574;52.090;5.244;2023-04-25T05:49:30;101287.0;;;12.4;48.16
61676;BME280;47574;52.090;5.244;2023-04-25T05:51:06;101291.0;;;12.46;47.55
61676;BME280;47574;52.090;5.244;2023-04-25T05:54:20;101291.0;;;12.32;47.31
61676;BME280;47574;52.090;5.244;2023-04-25T05:55:55;101290.0;;;12.42;47.0
61676;BME280;47574;52.090;5.244;2023-04-25T05:57:31;101291.0;;;12.4;47.11
61676;BME280;47574;52.090;5.244;2023-04-25T06:00:43;101294.0;;;12.39;47.22
61676;BME280;47574;52.090;5.244;2023-04-25T06:02:20;101298.0;;;12.38;47.02
61676;BME280;47574;52.090;5.244;2023-04-25T06:03:57;101299.0;;;12.55;46.58
61676;BME280;47574;52.090;5.244;2023-04-25T06:07:09;101307.0;;;12.46;46.72
61676;BME280;47574;52.090;5.244;2023-04-25T06:08:45;101310.0;;;12.69;46.85
61676;BME280;47574;52.090;5.244;2023-04-25T06:10:21;101307.0;;;12.49;46.83
61676;BME280;47574;52.090;5.244;2023-04-25T06:13:33;101314.0;;;12.56;46.58
61676;BME280;47574;52.090;5.244;2023-04-25T06:15:10;101316.0;;;12.54;46.77
61676;BME280;47574;52.090;5.244;2023-04-25T06:16:46;101319.0;;;12.79;46.8
61676;BME280;47574;52.090;5.244;2023-04-25T06:18:22;101319.0;;;12.83;46.87
61676;BME280;47574;52.090;5.244;2023-04-25T06:21:34;101320.0;;;12.9;47.5
61676;BME280;47574;52.090;5.244;2023-04-25T06:23:10;101323.0;;;13.15;47.26
61676;BME280;47574;52.090;5.244;2023-04-25T06:24:47;101326.0;;;12.95;46.32
61676;BME280;47574;52.090;5.244;2023-04-25T06:28:00;101323.0;;;13.02;46.97
61676;BME280;47574;52.090;5.244;2023-04-25T06:29:36;101325.0;;;12.95;46.75
61676;BME280;47574;52.090;5.244;2023-04-25T06:31:12;101324.0;;;13.03;46.9
61676;BME280;47574;52.090;5.244;2023-04-25T06:34:24;101327.0;;;13.2;46.96
61676;BME280;47574;52.090;5.244;2023-04-25T06:36:00;101330.0;;;13.26;47.02
61676;BME280;47574;52.090;5.244;2023-04-25T06:37:36;101333.0;;;12.99;45.87
61676;BME280;47574;52.090;5.244;2023-04-25T06:40:49;101330.0;;;13.06;46.58
61676;BME280;47574;52.090;5.244;2023-04-25T06:42:25;101337.0;;;12.88;46.39
61676;BME280;47574;52.090;5.244;2023-04-25T06:44:01;101341.0;;;12.96;46.39
61676;BME280;47574;52.090;5.244;2023-04-25T06:45:37;101337.0;;;13.06;46.44
61676;BME280;47574;52.090;5.244;2023-04-25T06:48:50;101344.0;;;13.14;46.69
61676;BME280;47574;52.090;5.244;2023-04-25T06:50:27;101345.0;;;13.15;46.65
61676;BME280;47574;52.090;5.244;2023-04-25T06:52:03;101349.0;;;13.12;46.13
61676;BME280;47574;52.090;5.244;2023-04-25T06:55:16;101345.0;;;13.19;46.6
61676;BME280;47574;52.090;5.244;2023-04-25T06:56:52;101351.0;;;13.29;46.15
61676;BME280;47574;52.090;5.244;2023-04-25T06:58:28;101353.0;;;13.31;46.26
61676;BME280;47574;52.090;5.244;2023-04-25T07:01:44;101358.0;;;13.1;46.32
61676;BME280;47574;52.090;5.244;2023-04-25T07:03:20;101355.0;;;13.15;46.66
61676;BME280;47574;52.090;5.244;2023-04-25T07:04:56;101361.0;;;13.24;45.75
61676;BME280;47574;52.090;5.244;2023-04-25T07:06:33;101353.0;;;13.41;45.91
61676;BME280;47574;52.090;5.244;2023-04-25T07:09:45;101355.0;;;13.49;45.58
61676;BME280;47574;52.090;5.244;2023-04-25T07:11:21;101360.0;;;13.3;45.91
61676;BME280;47574;52.090;5.244;2023-04-25T07:12:57;101364.0;;;13.24;46.05
61676;BME280;47574;52.090;5.244;2023-04-25T07:16:10;101363.0;;;13.57;45.49
61676;BME280;47574;52.090;5.244;2023-04-25T07:17:46;101364.0;;;13.48;45.52
61676;BME280;47574;52.090;5.244;2023-04-25T07:19:22;101363.0;;;13.83;45.64
61676;BME280;47574;52.090;5.244;2023-04-25T07:22:34;101368.0;;;13.99;45.3
61676;BME280;47574;52.090;5.244;2023-04-25T07:24:10;101374.0;;;14.07;44.44
61676;BME280;47574;52.090;5.244;2023-04-25T07:25:46;101371.0;;;13.78;44.08
61676;BME280;47574;52.090;5.244;2023-04-25T07:27:22;101372.0;;;13.47;44.42
61676;BME280;47574;52.090;5.244;2023-04-25T07:30:35;101375.0;;;13.72;44.59
61676;BME280;47574;52.090;5.244;2023-04-25T07:32:11;101374.0;;;14.12;44.82
61676;BME280;47574;52.090;5.244;2023-04-25T07:33:47;101380.0;;;14.13;43.91
61676;BME280;47574;52.090;5.244;2023-04-25T07:36:59;101380.0;;;13.94;43.55
61676;BME280;47574;52.090;5.244;2023-04-25T07:38:35;101385.0;;;13.95;43.72
61676;BME280;47574;52.090;5.244;2023-04-25T07:40:12;101384.0;;;13.57;43.78
61676;BME280;47574;52.090;5.244;2023-04-25T07:43:25;101390.0;;;13.52;43.96
61676;BME280;47574;52.090;5.244;2023-04-25T07:45:01;101396.0;;;13.81;43.29
61676;BME280;47574;52.090;5.244;2023-04-25T07:46:37;101389.0;;;13.79;42.59
61676;BME280;47574;52.090;5.244;2023-04-25T07:49:53;101391.0;;;13.89;42.71
61676;BME280;47574;52.090;5.244;2023-04-25T07:51:29;101399.0;;;13.48;43.54
61676;BME280;47574;52.090;5.244;2023-04-25T07:53:05;101402.0;;;13.62;43.41
61676;BME280;47574;52.090;5.244;2023-04-25T07:54:42;101403.0;;;13.86;42.95
61676;BME280;47574;52.090;5.244;2023-04-25T07:57:54;101405.0;;;13.4;43.51
61676;BME280;47574;52.090;5.244;2023-04-25T07:59:30;101405.0;;;13.72;42.1
61676;BME280;47574;52.090;5.244;2023-04-25T08:01:06;101405.0;;;13.48;42.36
61676;BME280;47574;52.090;5.244;2023-04-25T08:04:18;101403.0;;;13.66;42.43
61676;BME280;47574;52.090;5.244;2023-04-25T08:05:54;101409.0;;;13.94;41.65
61676;BME280;47574;52.090;5.244;2023-04-25T08:07:30;101414.0;;;13.53;41.98
61676;BME280;47574;52.090;5.244;2023-04-25T08:10:43;101425.0;;;13.47;42.1
61676;BME280;47574;52.090;5.244;2023-04-25T08:12:19;101426.0;;;13.37;41.85
61676;BME280;47574;52.090;5.244;2023-04-25T08:13:55;101425.0;;;13.77;41.45
61676;BME280;47574;52.090;5.244;2023-04-25T08:15:31;101427.0;;;13.59;40.79
61676;BME280;47574;52.090;5.244;2023-04-25T08:18:44;101432.0;;;13.88;40.5
61676;BME280;47574;52.090;5.244;2023-04-25T08:20:21;101427.0;;;13.92;40.67
61676;BME280;47574;52.090;5.244;2023-04-25T08:21:57;101436.0;;;13.95;40.53
61676;BME280;47574;52.090;5.244;2023-04-25T08:25:09;101437.0;;;13.49;40.51
61676;BME280;47574;52.090;5.244;2023-04-25T08:26:45;101435.0;;;14.13;40.25
61676;BME280;47574;52.090;5.244;2023-04-25T08:28:21;101443.0;;;14.1;40.21
61676;BME280;47574;52.090;5.244;2023-04-25T08:31:34;101444.0;;;13.99;40.71
61676;BME280;47574;52.090;5.244;2023-04-25T08:33:10;101456.0;;;14.1;40.39
61676;BME280;47574;52.090;5.244;2023-04-25T08:34:46;101456.0;;;13.84;40.98
61676;BME280;47574;52.090;5.244;2023-04-25T08:37:58;101465.0;;;13.51;41.02
61676;BME280;47574;52.090;5.244;2023-04-25T08:39:34;101469.0;;;13.76;40.75
61676;BME280;47574;52.090;5.244;2023-04-25T08:41:11;101470.0;;;13.56;41.38
61676;BME280;47574;52.090;5.244;2023-04-25T08:42:48;101468.0;;;13.83;40.82
61676;BME280;47574;52.090;5.244;2023-04-25T08:46:02;101466.0;;;13.86;41.07
61676;BME280;47574;52.090;5.244;2023-04-25T08:47:38;101471.0;;;13.33;41.37
61676;BME280;47574;52.090;5.244;2023-04-25T08:49:16;101475.0;;;13.58;41.23
61676;BME280;47574;52.090;5.244;2023-04-25T08:52:35;101477.0;;;13.47;40.57
61676;BME280;47574;52.090;5.244;2023-04-25T08:54:13;101487.0;;;13.69;39.87
61676;BME280;47574;52.090;5.244;2023-04-25T08:55:51;101488.0;;;13.72;40.33
61676;BME280;47574;52.090;5.244;2023-04-25T08:57:31;101493.0;;;13.81;39.65
61676;BME280;47574;52.090;5.244;2023-04-25T09:00:43;101495.0;;;13.69;39.44
61676;BME280;47574;52.090;5.244;2023-04-25T09:02:21;101494.0;;;13.97;40.0
61676;BME280;47574;52.090;5.244;2023-04-25T09:03:57;101495.0;;;13.85;39.03
61676;BME280;47574;52.090;5.244;2023-04-25T09:07:11;101497.0;;;14.05;39.21
61676;BME280;47574;52.090;5.244;2023-04-25T09:08:46;101501.0;;;14.32;38.94
61676;BME280;47574;52.090;5.244;2023-04-25T09:10:26;101496.0;;;14.37;38.6
61676;BME280;47574;52.090;5.244;2023-04-25T09:12:03;101499.0;;;14.0;38.33
61676;BME280;47574;52.090;5.244;2023-04-25T09:15:16;101511.0;;;13.91;39.1
61676;BME280;47574;52.090;5.244;2023-04-25T09:17:01;101506.0;;;14.19;37.81
61676;BME280;47574;52.090;5.244;2023-04-25T09:18:37;101503.0;;;14.08;35.89
61676;BME280;47574;52.090;5.244;2023-04-25T09:21:50;101509.0;;;13.88;35.01
61676;BME280;47574;52.090;5.244;2023-04-25T09:23:27;101505.0;;;14.43;35.67
61676;BME280;47574;52.090;5.244;2023-04-25T09:25:07;101513.0;;;14.39;35.31
61676;BME280;47574;52.090;5.244;2023-04-25T09:26:44;101518.0;;;14.32;35.94
61676;BME280;47574;52.090;5.244;2023-04-25T09:30:00;101513.0;;;14.6;37.64
61676;BME280;47574;52.090;5.244;2023-04-25T09:31:36;101514.0;;;14.51;35.5
61676;BME280;47574;52.090;5.244;2023-04-25T09:33:12;101516.0;;;15.04;35.72
61676;BME280;47574;52.090;5.244;2023-04-25T09:36:29;101516.0;;;15.01;34.61
61676;BME280;47574;52.090;5.244;2023-04-25T09:38:08;101515.0;;;15.05;35.35
61676;BME280;47574;52.090;5.244;2023-04-25T09:39:44;101525.0;;;14.92;35.83
61676;BME280;47574;52.090;5.244;2023-04-25T09:41:23;101537.0;;;15.35;35.96
61676;BME280;47574;52.090;5.244;2023-04-25T09:44:35;101534.0;;;15.07;36.39
61676;BME280;47574;52.090;5.244;2023-04-25T09:46:12;101537.0;;;14.74;37.1
61676;BME280;47574;52.090;5.244;2023-04-25T09:47:49;101539.0;;;14.89;37.17
61676;BME280;47574;52.090;5.244;2023-04-25T09:51:04;101541.0;;;14.66;37.19
61676;BME280;47574;52.090;5.244;2023-04-25T09:52:43;101548.0;;;14.33;38.58
61676;BME280;47574;52.090;5.244;2023-04-25T09:54:19;101556.0;;;13.98;39.92
61676;BME280;47574;52.090;5.244;2023-04-25T09:55:56;101556.0;;;14.4;40.03
61676;BME280;47574;52.090;5.244;2023-04-25T09:59:09;101561.0;;;14.13;39.96
61676;BME280;47574;52.090;5.244;2023-04-25T10:00:47;101556.0;;;14.39;38.54
61676;BME280;47574;52.090;5.244;2023-04-25T10:02:25;101555.0;;;14.61;38.36
61676;BME280;47574;52.090;5.244;2023-04-25T10:05:43;101560.0;;;14.59;38.64
61676;BME280;47574;52.090;5.244;2023-04-25T10:07:20;101555.0;;;14.82;38.82
61676;BME280;47574;52.090;5.244;2023-04-25T10:08:58;101567.0;;;14.38;39.21
61676;BME280;47574;52.090;5.244;2023-04-25T10:10:35;101572.0;;;14.77;38.42
61676;BME280;47574;52.090;5.244;2023-04-25T10:13:50;101574.0;;;14.59;38.69
61676;BME280;47574;52.090;5.244;2023-04-25T10:15:26;101568.0;;;14.48;38.72
61676;BME280;47574;52.090;5.244;2023-04-25T10:17:03;101570.0;;;14.78;38.56
61676;BME280;47574;52.090;5.244;2023-04-25T10:20:15;101564.0;;;14.45;38.96
61676;BME280;47574;52.090;5.244;2023-04-25T10:21:54;101567.0;;;14.56;39.43
61676;BME280;47574;52.090;5.244;2023-04-25T10:23:34;101562.0;;;15.06;38.89
61676;BME280;47574;52.090;5.244;2023-04-25T10:25:12;101564.0;;;14.77;38.87
61676;BME280;47574;52.090;5.244;2023-04-25T10:28:26;101572.0;;;14.79;38.29
61676;BME280;47574;52.090;5.244;2023-04-25T10:30:03;101566.0;;;14.65;38.54
61676;BME280;47574;52.090;5.244;2023-04-25T10:31:46;101564.0;;;14.89;38.17
61676;BME280;47574;52.090;5.244;2023-04-25T10:35:12;101567.0;;;14.76;38.17
61676;BME280;47574;52.090;5.244;2023-04-25T10:36:51;101564.0;;;15.16;36.94
61676;BME280;47574;52.090;5.244;2023-04-25T10:38:27;101567.0;;;15.02;36.71
61676;BME280;47574;52.090;5.244;2023-04-25T10:40:08;101565.0;;;15.19;37.1
61676;BME280;47574;52.090;5.244;2023-04-25T10:43:35;101566.0;;;15.17;35.83
61676;BME280;47574;52.090;5.244;2023-04-25T10:45:15;101570.0;;;15.39;36.39
61676;BME280;47574;52.090;5.244;2023-04-25T10:46:51;101571.0;;;15.53;34.85
61676;BME280;47574;52.090;5.244;2023-04-25T10:48:28;101583.0;;;15.62;34.96
61676;BME280;47574;52.090;5.244;2023-04-25T10:51:43;101580.0;;;15.25;34.71
61676;BME280;47574;52.090;5.244;2023-04-25T10:53:24;101573.0;;;15.43;35.64
61676;BME280;47574;52.090;5.244;2023-04-25T10:55:03;101573.0;;;15.69;34.42
61676;BME280;47574;52.090;5.244;2023-04-25T10:56:42;101580.0;;;15.89;33.96
61676;BME280;47574;52.090;5.244;2023-04-25T11:00:00;101584.0;;;15.79;32.78
61676;BME280;47574;52.090;5.244;2023-04-25T11:01:41;101577.0;;;16.11;33.33
61676;BME280;47574;52.090;5.244;2023-04-25T11:03:21;101571.0;;;15.66;34.21
61676;BME280;47574;52.090;5.244;2023-04-25T11:04:58;101577.0;;;15.91;33.24